sensor_id;sensor_type;location;lat;lon;timestamp;P1;durP1;ratioP1;P2;durP2;ratioP2
76405;SDS011;65234;50.044;19.258;2023-03-13T00:00:29;46.13;;;43.75;;
76405;SDS011;65234;50.044;19.258;2023-03-13T00:03:15;49.55;;;47.00;;
76405;SDS011;65234;50.044;19.258;2023-03-13T00:05:41;50.22;;;47.58;;
76405;SDS011;65234;50.044;19.258;2023-03-13T00:08:08;49.42;;;46.78;;
76405;SDS011;65234;50.044;19.258;2023-03-13T00:10:35;50.20;;;47.72;;
76405;SDS011;65234;50.044;19.258;2023-03-13T00:13:01;48.92;;;46.30;;
76405;SDS011;65234;50.044;19.258;2023-03-13T00:15:27;49.97;;;47.13;;
76405;SDS011;65234;50.044;19.258;2023-03-13T00:17:52;51.05;;;48.17;;
76405;SDS011;65234;50.044;19.258;2023-03-13T00:20:18;52.13;;;49.42;;
76405;SDS011;65234;50.044;19.258;2023-03-13T00:22:44;49.60;;;46.80;;
76405;SDS011;65234;50.044;19.258;2023-03-13T00:25:11;51.60;;;48.85;;
76405;SDS011;65234;50.044;19.258;2023-03-13T00:27:37;48.42;;;46.10;;
76405;SDS011;65234;50.044;19.258;2023-03-13T00:30:02;50.70;;;48.10;;
76405;SDS011;65234;50.044;19.258;2023-03-13T00:32:29;50.97;;;48.08;;
76405;SDS011;65234;50.044;19.258;2023-03-13T00:34:54;49.17;;;46.55;;
76405;SDS011;65234;50.044;19.258;2023-03-13T00:37:20;47.78;;;45.22;;
76405;SDS011;65234;50.044;19.258;2023-03-13T00:39:46;50.65;;;48.05;;
76405;SDS011;65234;50.044;19.258;2023-03-13T00:42:13;49.65;;;46.97;;
76405;SDS011;65234;50.044;19.258;2023-03-13T00:44:38;47.25;;;44.92;;
76405;SDS011;65234;50.044;19.258;2023-03-13T00:47:04;48.10;;;45.53;;
76405;SDS011;65234;50.044;19.258;2023-03-13T00:49:30;50.45;;;47.95;;
76405;SDS011;65234;50.044;19.258;2023-03-13T00:51:56;50.60;;;48.15;;
76405;SDS011;65234;50.044;19.258;2023-03-13T00:54:22;51.25;;;48.42;;
76405;SDS011;65234;50.044;19.258;2023-03-13T00:56:47;50.97;;;48.17;;
76405;SDS011;65234;50.044;19.258;2023-03-13T00:59:14;50.45;;;47.85;;
76405;SDS011;65234;50.044;19.258;2023-03-13T01:01:40;51.40;;;48.83;;
76405;SDS011;65234;50.044;19.258;2023-03-13T01:04:06;49.33;;;47.00;;
76405;SDS011;65234;50.044;19.258;2023-03-13T01:06:34;48.92;;;46.60;;
76405;SDS011;65234;50.044;19.258;2023-03-13T01:09:01;49.67;;;47.35;;
76405;SDS011;65234;50.044;19.258;2023-03-13T01:11:29;49.47;;;46.78;;
76405;SDS011;65234;50.044;19.258;2023-03-13T01:13:57;51.38;;;48.88;;
76405;SDS011;65234;50.044;19.258;2023-03-13T01:16:26;51.08;;;48.40;;
76405;SDS011;65234;50.044;19.258;2023-03-13T01:18:54;50.38;;;47.65;;
76405;SDS011;65234;50.044;19.258;2023-03-13T01:21:21;51.00;;;48.30;;
76405;SDS011;65234;50.044;19.258;2023-03-13T01:23:48;49.17;;;46.40;;
76405;SDS011;65234;50.044;19.258;2023-03-13T01:26:15;49.58;;;46.88;;
76405;SDS011;65234;50.044;19.258;2023-03-13T01:28:41;51.05;;;48.25;;
76405;SDS011;65234;50.044;19.258;2023-03-13T01:31:11;51.03;;;48.60;;
76405;SDS011;65234;50.044;19.258;2023-03-13T01:33:39;49.65;;;47.35;;
76405;SDS011;65234;50.044;19.258;2023-03-13T01:36:05;49.83;;;47.47;;
76405;SDS011;65234;50.044;19.258;2023-03-13T01:38:31;51.40;;;48.85;;
76405;SDS011;65234;50.044;19.258;2023-03-13T01:40:57;51.15;;;48.65;;
76405;SDS011;65234;50.044;19.258;2023-03-13T01:43:24;51.72;;;49.22;;
76405;SDS011;65234;50.044;19.258;2023-03-13T01:46:02;49.92;;;47.53;;
76405;SDS011;65234;50.044;19.258;2023-03-13T01:48:34;49.97;;;47.38;;
76405;SDS011;65234;50.044;19.258;2023-03-13T01:51:07;49.67;;;47.15;;
76405;SDS011;65234;50.044;19.258;2023-03-13T01:53:36;51.88;;;49.28;;
76405;SDS011;65234;50.044;19.258;2023-03-13T01:56:07;49.70;;;47.30;;
76405;SDS011;65234;50.044;19.258;2023-03-13T01:58:36;47.88;;;45.58;;
76405;SDS011;65234;50.044;19.258;2023-03-13T02:01:02;52.53;;;49.58;;
76405;SDS011;65234;50.044;19.258;2023-03-13T02:03:29;52.65;;;50.10;;
76405;SDS011;65234;50.044;19.258;2023-03-13T02:05:55;51.25;;;48.25;;
76405;SDS011;65234;50.044;19.258;2023-03-13T02:08:28;50.50;;;48.03;;
76405;SDS011;65234;50.044;19.258;2023-03-13T02:10:58;53.10;;;50.50;;
76405;SDS011;65234;50.044;19.258;2023-03-13T02:13:31;54.53;;;51.45;;
76405;SDS011;65234;50.044;19.258;2023-03-13T02:15:57;51.63;;;49.22;;
76405;SDS011;65234;50.044;19.258;2023-03-13T02:18:23;54.10;;;51.15;;
76405;SDS011;65234;50.044;19.258;2023-03-13T02:20:49;53.33;;;50.53;;
76405;SDS011;65234;50.044;19.258;2023-03-13T02:23:21;51.55;;;48.83;;
76405;SDS011;65234;50.044;19.258;2023-03-13T02:25:53;52.53;;;49.83;;
76405;SDS011;65234;50.044;19.258;2023-03-13T02:28:20;53.28;;;50.47;;
76405;SDS011;65234;50.044;19.258;2023-03-13T02:30:48;52.05;;;49.35;;
76405;SDS011;65234;50.044;19.258;2023-03-13T02:33:15;52.20;;;49.50;;
76405;SDS011;65234;50.044;19.258;2023-03-13T02:35:44;53.13;;;50.05;;
76405;SDS011;65234;50.044;19.258;2023-03-13T02:38:11;51.67;;;49.17;;
76405;SDS011;65234;50.044;19.258;2023-03-13T02:40:41;51.30;;;48.58;;
76405;SDS011;65234;50.044;19.258;2023-03-13T02:43:11;51.95;;;49.25;;
76405;SDS011;65234;50.044;19.258;2023-03-13T02:45:41;54.80;;;52.10;;
76405;SDS011;65234;50.044;19.258;2023-03-13T02:48:07;52.97;;;50.55;;
76405;SDS011;65234;50.044;19.258;2023-03-13T02:50:33;53.08;;;50.28;;
76405;SDS011;65234;50.044;19.258;2023-03-13T02:53:02;51.95;;;49.47;;
76405;SDS011;65234;50.044;19.258;2023-03-13T02:55:31;55.30;;;52.58;;
76405;SDS011;65234;50.044;19.258;2023-03-13T02:58:01;52.00;;;49.50;;
76405;SDS011;65234;50.044;19.258;2023-03-13T03:00:29;55.28;;;52.28;;
76405;SDS011;65234;50.044;19.258;2023-03-13T03:02:54;51.95;;;49.35;;
76405;SDS011;65234;50.044;19.258;2023-03-13T03:05:20;55.40;;;52.55;;
76405;SDS011;65234;50.044;19.258;2023-03-13T03:07:46;54.30;;;51.63;;
76405;SDS011;65234;50.044;19.258;2023-03-13T03:10:12;55.33;;;52.42;;
76405;SDS011;65234;50.044;19.258;2023-03-13T03:12:37;55.08;;;52.20;;
76405;SDS011;65234;50.044;19.258;2023-03-13T03:15:04;52.17;;;49.67;;
76405;SDS011;65234;50.044;19.258;2023-03-13T03:17:32;53.35;;;50.88;;
76405;SDS011;65234;50.044;19.258;2023-03-13T03:19:58;55.13;;;52.13;;
76405;SDS011;65234;50.044;19.258;2023-03-13T03:22:23;56.80;;;53.60;;
76405;SDS011;65234;50.044;19.258;2023-03-13T03:24:49;54.10;;;51.17;;
76405;SDS011;65234;50.044;19.258;2023-03-13T03:27:15;55.88;;;52.97;;
76405;SDS011;65234;50.044;19.258;2023-03-13T03:29:41;52.53;;;49.78;;
76405;SDS011;65234;50.044;19.258;2023-03-13T03:32:06;55.58;;;52.97;;
76405;SDS011;65234;50.044;19.258;2023-03-13T03:34:33;52.90;;;50.28;;
76405;SDS011;65234;50.044;19.258;2023-03-13T03:36:59;54.30;;;51.75;;
76405;SDS011;65234;50.044;19.258;2023-03-13T03:39:25;57.00;;;53.83;;
76405;SDS011;65234;50.044;19.258;2023-03-13T03:41:50;54.55;;;51.55;;
76405;SDS011;65234;50.044;19.258;2023-03-13T03:44:16;55.70;;;52.75;;
76405;SDS011;65234;50.044;19.258;2023-03-13T03:46:42;61.42;;;57.47;;
76405;SDS011;65234;50.044;19.258;2023-03-13T03:49:07;59.40;;;56.45;;
76405;SDS011;65234;50.044;19.258;2023-03-13T03:51:34;59.53;;;56.38;;
76405;SDS011;65234;50.044;19.258;2023-03-13T03:54:00;55.60;;;52.38;;
76405;SDS011;65234;50.044;19.258;2023-03-13T03:56:26;56.88;;;53.97;;
76405;SDS011;65234;50.044;19.258;2023-03-13T03:58:51;56.55;;;53.45;;
76405;SDS011;65234;50.044;19.258;2023-03-13T04:01:17;59.83;;;56.22;;
76405;SDS011;65234;50.044;19.258;2023-03-13T04:03:43;58.53;;;55.50;;
76405;SDS011;65234;50.044;19.258;2023-03-13T04:06:08;58.35;;;55.00;;
76405;SDS011;65234;50.044;19.258;2023-03-13T04:08:36;60.85;;;57.03;;
76405;SDS011;65234;50.044;19.258;2023-03-13T04:11:01;56.30;;;53.47;;
76405;SDS011;65234;50.044;19.258;2023-03-13T04:13:27;57.60;;;53.83;;
76405;SDS011;65234;50.044;19.258;2023-03-13T04:15:53;56.83;;;53.72;;
76405;SDS011;65234;50.044;19.258;2023-03-13T04:18:19;58.05;;;54.95;;
76405;SDS011;65234;50.044;19.258;2023-03-13T04:20:44;58.00;;;54.65;;
76405;SDS011;65234;50.044;19.258;2023-03-13T04:23:10;57.15;;;54.28;;
76405;SDS011;65234;50.044;19.258;2023-03-13T04:25:37;56.42;;;53.67;;
76405;SDS011;65234;50.044;19.258;2023-03-13T04:28:03;58.50;;;55.50;;
76405;SDS011;65234;50.044;19.258;2023-03-13T04:30:29;57.25;;;54.28;;
76405;SDS011;65234;50.044;19.258;2023-03-13T04:32:54;56.50;;;53.30;;
76405;SDS011;65234;50.044;19.258;2023-03-13T04:35:20;56.88;;;53.80;;
76405;SDS011;65234;50.044;19.258;2023-03-13T04:37:46;56.53;;;53.42;;
76405;SDS011;65234;50.044;19.258;2023-03-13T04:40:12;56.53;;;53.50;;
76405;SDS011;65234;50.044;19.258;2023-03-13T04:42:39;56.15;;;53.08;;
76405;SDS011;65234;50.044;19.258;2023-03-13T04:45:05;58.60;;;55.20;;
76405;SDS011;65234;50.044;19.258;2023-03-13T04:47:33;57.88;;;54.70;;
76405;SDS011;65234;50.044;19.258;2023-03-13T04:49:58;56.28;;;53.33;;
76405;SDS011;65234;50.044;19.258;2023-03-13T04:52:24;61.92;;;57.85;;
76405;SDS011;65234;50.044;19.258;2023-03-13T04:54:50;64.40;;;59.45;;
76405;SDS011;65234;50.044;19.258;2023-03-13T04:57:15;64.03;;;58.80;;
76405;SDS011;65234;50.044;19.258;2023-03-13T04:59:49;64.40;;;59.45;;
76405;SDS011;65234;50.044;19.258;2023-03-13T05:02:15;61.88;;;57.72;;
76405;SDS011;65234;50.044;19.258;2023-03-13T05:04:40;61.30;;;57.63;;
76405;SDS011;65234;50.044;19.258;2023-03-13T05:07:06;56.38;;;53.38;;
76405;SDS011;65234;50.044;19.258;2023-03-13T05:09:32;55.60;;;52.45;;
76405;SDS011;65234;50.044;19.258;2023-03-13T05:11:57;59.08;;;55.88;;
76405;SDS011;65234;50.044;19.258;2023-03-13T05:14:23;58.92;;;55.42;;
76405;SDS011;65234;50.044;19.258;2023-03-13T05:16:50;60.10;;;55.90;;
76405;SDS011;65234;50.044;19.258;2023-03-13T05:19:16;55.40;;;52.10;;
76405;SDS011;65234;50.044;19.258;2023-03-13T05:21:42;57.22;;;54.00;;
76405;SDS011;65234;50.044;19.258;2023-03-13T05:24:08;56.28;;;53.33;;
76405;SDS011;65234;50.044;19.258;2023-03-13T05:26:33;57.10;;;54.22;;
76405;SDS011;65234;50.044;19.258;2023-03-13T05:28:59;57.50;;;54.55;;
76405;SDS011;65234;50.044;19.258;2023-03-13T05:31:25;56.67;;;53.78;;
76405;SDS011;65234;50.044;19.258;2023-03-13T05:33:52;58.83;;;55.65;;
76405;SDS011;65234;50.044;19.258;2023-03-13T05:36:17;55.20;;;52.25;;
76405;SDS011;65234;50.044;19.258;2023-03-13T05:38:43;60.13;;;56.85;;
76405;SDS011;65234;50.044;19.258;2023-03-13T05:41:09;60.50;;;57.15;;
76405;SDS011;65234;50.044;19.258;2023-03-13T05:43:35;59.28;;;56.20;;
76405;SDS011;65234;50.044;19.258;2023-03-13T05:46:01;59.95;;;56.78;;
76405;SDS011;65234;50.044;19.258;2023-03-13T05:48:26;58.67;;;55.47;;
76405;SDS011;65234;50.044;19.258;2023-03-13T05:50:54;58.40;;;55.03;;
76405;SDS011;65234;50.044;19.258;2023-03-13T05:53:19;58.85;;;55.60;;
76405;SDS011;65234;50.044;19.258;2023-03-13T05:55:45;59.20;;;56.00;;
76405;SDS011;65234;50.044;19.258;2023-03-13T05:58:11;60.25;;;56.75;;
76405;SDS011;65234;50.044;19.258;2023-03-13T06:00:36;58.50;;;55.20;;
76405;SDS011;65234;50.044;19.258;2023-03-13T06:03:02;56.20;;;53.00;;
76405;SDS011;65234;50.044;19.258;2023-03-13T06:05:28;60.03;;;56.97;;
76405;SDS011;65234;50.044;19.258;2023-03-13T06:07:55;59.03;;;56.03;;
76405;SDS011;65234;50.044;19.258;2023-03-13T06:10:21;59.67;;;56.38;;
76405;SDS011;65234;50.044;19.258;2023-03-13T06:12:50;61.10;;;57.30;;
76405;SDS011;65234;50.044;19.258;2023-03-13T06:15:17;61.90;;;58.70;;
76405;SDS011;65234;50.044;19.258;2023-03-13T06:17:42;58.58;;;55.10;;
76405;SDS011;65234;50.044;19.258;2023-03-13T06:20:09;61.03;;;57.38;;
76405;SDS011;65234;50.044;19.258;2023-03-13T06:22:35;61.42;;;58.13;;
76405;SDS011;65234;50.044;19.258;2023-03-13T06:25:03;61.65;;;58.50;;
76405;SDS011;65234;50.044;19.258;2023-03-13T06:27:29;56.17;;;53.08;;
76405;SDS011;65234;50.044;19.258;2023-03-13T06:29:55;57.08;;;54.22;;
76405;SDS011;65234;50.044;19.258;2023-03-13T06:32:20;60.05;;;56.88;;
76405;SDS011;65234;50.044;19.258;2023-03-13T06:34:46;57.90;;;54.53;;
76405;SDS011;65234;50.044;19.258;2023-03-13T06:37:12;61.08;;;57.65;;
76405;SDS011;65234;50.044;19.258;2023-03-13T06:39:37;60.65;;;57.30;;
76405;SDS011;65234;50.044;19.258;2023-03-13T06:42:05;60.75;;;57.22;;
76405;SDS011;65234;50.044;19.258;2023-03-13T06:44:31;62.67;;;58.58;;
76405;SDS011;65234;50.044;19.258;2023-03-13T06:46:57;69.22;;;64.45;;
76405;SDS011;65234;50.044;19.258;2023-03-13T06:49:23;65.75;;;62.05;;
76405;SDS011;65234;50.044;19.258;2023-03-13T06:51:48;81.60;;;72.95;;
76405;SDS011;65234;50.044;19.258;2023-03-13T06:54:14;70.70;;;64.78;;
76405;SDS011;65234;50.044;19.258;2023-03-13T06:56:40;67.45;;;63.17;;
76405;SDS011;65234;50.044;19.258;2023-03-13T06:59:07;67.15;;;63.20;;
76405;SDS011;65234;50.044;19.258;2023-03-13T07:01:33;63.90;;;60.53;;
76405;SDS011;65234;50.044;19.258;2023-03-13T07:03:58;65.95;;;62.60;;
76405;SDS011;65234;50.044;19.258;2023-03-13T07:06:24;68.68;;;64.93;;
76405;SDS011;65234;50.044;19.258;2023-03-13T07:08:50;68.32;;;64.70;;
76405;SDS011;65234;50.044;19.258;2023-03-13T07:11:15;69.85;;;66.32;;
76405;SDS011;65234;50.044;19.258;2023-03-13T07:13:41;67.25;;;63.83;;
76405;SDS011;65234;50.044;19.258;2023-03-13T07:16:09;69.15;;;65.45;;
76405;SDS011;65234;50.044;19.258;2023-03-13T07:18:36;68.45;;;65.07;;
76405;SDS011;65234;50.044;19.258;2023-03-13T07:21:03;69.00;;;65.65;;
76405;SDS011;65234;50.044;19.258;2023-03-13T07:23:29;72.68;;;68.38;;
76405;SDS011;65234;50.044;19.258;2023-03-13T07:25:57;70.22;;;66.82;;
76405;SDS011;65234;50.044;19.258;2023-03-13T07:28:24;73.78;;;70.00;;
76405;SDS011;65234;50.044;19.258;2023-03-13T07:30:50;77.18;;;73.05;;
76405;SDS011;65234;50.044;19.258;2023-03-13T07:33:18;77.55;;;72.95;;
76405;SDS011;65234;50.044;19.258;2023-03-13T07:35:47;78.00;;;73.88;;
76405;SDS011;65234;50.044;19.258;2023-03-13T07:38:13;80.63;;;76.60;;
76405;SDS011;65234;50.044;19.258;2023-03-13T07:40:39;80.60;;;76.88;;
76405;SDS011;65234;50.044;19.258;2023-03-13T07:43:05;79.03;;;74.65;;
76405;SDS011;65234;50.044;19.258;2023-03-13T07:45:30;79.32;;;75.38;;
76405;SDS011;65234;50.044;19.258;2023-03-13T07:47:56;77.57;;;73.07;;
76405;SDS011;65234;50.044;19.258;2023-03-13T07:50:23;79.72;;;75.97;;
76405;SDS011;65234;50.044;19.258;2023-03-13T07:52:49;83.47;;;79.45;;
76405;SDS011;65234;50.044;19.258;2023-03-13T07:55:15;83.97;;;78.75;;
76405;SDS011;65234;50.044;19.258;2023-03-13T07:57:41;77.63;;;73.43;;
76405;SDS011;65234;50.044;19.258;2023-03-13T08:00:07;84.60;;;80.05;;
76405;SDS011;65234;50.044;19.258;2023-03-13T08:02:34;84.18;;;79.90;;
76405;SDS011;65234;50.044;19.258;2023-03-13T08:05:00;84.72;;;80.53;;
76405;SDS011;65234;50.044;19.258;2023-03-13T08:07:27;84.72;;;80.22;;
76405;SDS011;65234;50.044;19.258;2023-03-13T08:09:53;83.97;;;79.22;;
76405;SDS011;65234;50.044;19.258;2023-03-13T08:12:19;82.75;;;78.65;;
76405;SDS011;65234;50.044;19.258;2023-03-13T08:14:44;82.90;;;78.85;;
76405;SDS011;65234;50.044;19.258;2023-03-13T08:17:10;84.95;;;80.47;;
76405;SDS011;65234;50.044;19.258;2023-03-13T08:19:36;90.50;;;86.10;;
76405;SDS011;65234;50.044;19.258;2023-03-13T08:22:01;89.95;;;84.78;;
76405;SDS011;65234;50.044;19.258;2023-03-13T08:24:28;90.10;;;85.72;;
76405;SDS011;65234;50.044;19.258;2023-03-13T08:26:54;86.30;;;82.15;;
76405;SDS011;65234;50.044;19.258;2023-03-13T08:29:20;86.10;;;81.95;;
76405;SDS011;65234;50.044;19.258;2023-03-13T08:31:46;87.80;;;82.93;;
76405;SDS011;65234;50.044;19.258;2023-03-13T08:34:13;88.13;;;83.82;;
76405;SDS011;65234;50.044;19.258;2023-03-13T08:36:40;88.82;;;84.35;;
76405;SDS011;65234;50.044;19.258;2023-03-13T08:39:06;92.38;;;87.20;;
76405;SDS011;65234;50.044;19.258;2023-03-13T08:41:36;87.28;;;83.00;;
76405;SDS011;65234;50.044;19.258;2023-03-13T08:44:03;90.03;;;85.78;;
76405;SDS011;65234;50.044;19.258;2023-03-13T08:46:30;90.85;;;86.60;;
76405;SDS011;65234;50.044;19.258;2023-03-13T08:48:56;91.20;;;87.00;;
76405;SDS011;65234;50.044;19.258;2023-03-13T08:51:23;91.30;;;86.97;;
76405;SDS011;65234;50.044;19.258;2023-03-13T08:53:50;97.07;;;92.05;;
76405;SDS011;65234;50.044;19.258;2023-03-13T08:56:17;98.70;;;93.65;;
76405;SDS011;65234;50.044;19.258;2023-03-13T08:58:49;93.63;;;89.18;;
76405;SDS011;65234;50.044;19.258;2023-03-13T09:01:15;100.50;;;95.22;;
76405;SDS011;65234;50.044;19.258;2023-03-13T09:03:41;92.55;;;88.07;;
76405;SDS011;65234;50.044;19.258;2023-03-13T09:06:07;104.57;;;99.45;;
76405;SDS011;65234;50.044;19.258;2023-03-13T09:08:34;109.25;;;103.28;;
76405;SDS011;65234;50.044;19.258;2023-03-13T09:11:01;112.10;;;105.68;;
76405;SDS011;65234;50.044;19.258;2023-03-13T09:13:28;102.70;;;97.93;;
76405;SDS011;65234;50.044;19.258;2023-03-13T09:15:57;111.60;;;106.30;;
76405;SDS011;65234;50.044;19.258;2023-03-13T09:18:24;105.47;;;100.35;;
76405;SDS011;65234;50.044;19.258;2023-03-13T09:20:50;110.07;;;104.97;;
76405;SDS011;65234;50.044;19.258;2023-03-13T09:23:16;109.80;;;103.53;;
76405;SDS011;65234;50.044;19.258;2023-03-13T09:25:42;105.82;;;100.68;;
76405;SDS011;65234;50.044;19.258;2023-03-13T09:28:08;105.65;;;100.45;;
76405;SDS011;65234;50.044;19.258;2023-03-13T09:30:34;103.88;;;97.75;;
76405;SDS011;65234;50.044;19.258;2023-03-13T09:33:01;110.25;;;104.75;;
76405;SDS011;65234;50.044;19.258;2023-03-13T09:35:26;108.43;;;103.25;;
76405;SDS011;65234;50.044;19.258;2023-03-13T09:37:52;111.38;;;106.15;;
76405;SDS011;65234;50.044;19.258;2023-03-13T09:40:18;107.88;;;102.80;;
76405;SDS011;65234;50.044;19.258;2023-03-13T09:42:46;110.30;;;105.07;;
76405;SDS011;65234;50.044;19.258;2023-03-13T09:45:15;113.90;;;108.43;;
76405;SDS011;65234;50.044;19.258;2023-03-13T09:47:44;110.15;;;104.95;;
76405;SDS011;65234;50.044;19.258;2023-03-13T09:50:14;110.53;;;104.63;;
76405;SDS011;65234;50.044;19.258;2023-03-13T09:52:46;108.18;;;102.78;;
76405;SDS011;65234;50.044;19.258;2023-03-13T09:55:18;112.65;;;107.55;;
76405;SDS011;65234;50.044;19.258;2023-03-13T09:57:48;108.68;;;103.15;;
76405;SDS011;65234;50.044;19.258;2023-03-13T10:00:18;112.20;;;107.03;;
76405;SDS011;65234;50.044;19.258;2023-03-13T10:02:51;112.20;;;107.00;;
76405;SDS011;65234;50.044;19.258;2023-03-13T10:05:23;115.03;;;109.70;;
76405;SDS011;65234;50.044;19.258;2023-03-13T10:07:50;113.47;;;108.28;;
76405;SDS011;65234;50.044;19.258;2023-03-13T10:10:23;117.70;;;111.75;;
76405;SDS011;65234;50.044;19.258;2023-03-13T10:12:59;113.18;;;108.18;;
76405;SDS011;65234;50.044;19.258;2023-03-13T10:15:36;118.13;;;112.68;;
76405;SDS011;65234;50.044;19.258;2023-03-13T10:18:11;115.40;;;109.80;;
76405;SDS011;65234;50.044;19.258;2023-03-13T10:23:10;110.30;;;105.13;;
76405;SDS011;65234;50.044;19.258;2023-03-13T10:25:40;118.35;;;113.03;;
76405;SDS011;65234;50.044;19.258;2023-03-13T10:28:07;117.95;;;112.15;;
76405;SDS011;65234;50.044;19.258;2023-03-13T10:30:36;118.78;;;113.32;;
76405;SDS011;65234;50.044;19.258;2023-03-13T10:33:15;112.75;;;107.60;;
76405;SDS011;65234;50.044;19.258;2023-03-13T10:35:45;119.43;;;113.00;;
76405;SDS011;65234;50.044;19.258;2023-03-13T10:38:23;108.40;;;103.35;;
76405;SDS011;65234;50.044;19.258;2023-03-13T10:40:54;117.30;;;111.93;;
76405;SDS011;65234;50.044;19.258;2023-03-13T10:43:21;117.90;;;112.68;;
76405;SDS011;65234;50.044;19.258;2023-03-13T10:45:50;117.55;;;112.10;;
76405;SDS011;65234;50.044;19.258;2023-03-13T10:48:18;117.03;;;111.88;;
76405;SDS011;65234;50.044;19.258;2023-03-13T10:50:47;117.35;;;112.10;;
76405;SDS011;65234;50.044;19.258;2023-03-13T10:53:20;117.55;;;111.75;;
76405;SDS011;65234;50.044;19.258;2023-03-13T10:55:57;120.68;;;114.97;;
76405;SDS011;65234;50.044;19.258;2023-03-13T10:58:29;117.55;;;112.32;;
76405;SDS011;65234;50.044;19.258;2023-03-13T11:01:08;116.40;;;111.28;;
76405;SDS011;65234;50.044;19.258;2023-03-13T11:03:38;120.90;;;115.28;;
76405;SDS011;65234;50.044;19.258;2023-03-13T11:06:15;125.30;;;119.78;;
76405;SDS011;65234;50.044;19.258;2023-03-13T11:08:48;125.75;;;119.47;;
76405;SDS011;65234;50.044;19.258;2023-03-13T11:11:16;122.03;;;116.07;;
76405;SDS011;65234;50.044;19.258;2023-03-13T11:13:44;120.55;;;114.75;;
76405;SDS011;65234;50.044;19.258;2023-03-13T11:16:17;121.90;;;116.57;;
76405;SDS011;65234;50.044;19.258;2023-03-13T11:21:38;128.90;;;123.30;;
76405;SDS011;65234;50.044;19.258;2023-03-13T11:24:14;127.00;;;121.28;;
76405;SDS011;65234;50.044;19.258;2023-03-13T11:26:50;127.20;;;121.65;;
76405;SDS011;65234;50.044;19.258;2023-03-13T11:29:25;127.15;;;121.47;;
76405;SDS011;65234;50.044;19.258;2023-03-13T11:31:57;129.07;;;123.40;;
76405;SDS011;65234;50.044;19.258;2023-03-13T11:34:27;132.75;;;127.03;;
76405;SDS011;65234;50.044;19.258;2023-03-13T11:37:00;133.65;;;127.82;;
76405;SDS011;65234;50.044;19.258;2023-03-13T11:39:35;139.85;;;133.65;;
76405;SDS011;65234;50.044;19.258;2023-03-13T11:42:14;140.65;;;134.52;;
76405;SDS011;65234;50.044;19.258;2023-03-13T11:44:54;140.05;;;134.00;;
76405;SDS011;65234;50.044;19.258;2023-03-13T11:47:40;137.23;;;131.13;;
76405;SDS011;65234;50.044;19.258;2023-03-13T11:50:24;139.70;;;133.65;;
76405;SDS011;65234;50.044;19.258;2023-03-13T11:53:02;136.60;;;130.60;;
76405;SDS011;65234;50.044;19.258;2023-03-13T11:55:45;146.10;;;139.50;;
76405;SDS011;65234;50.044;19.258;2023-03-13T11:58:25;144.40;;;138.27;;
76405;SDS011;65234;50.044;19.258;2023-03-13T12:01:16;144.05;;;137.27;;
76405;SDS011;65234;50.044;19.258;2023-03-13T12:03:47;150.43;;;143.48;;
76405;SDS011;65234;50.044;19.258;2023-03-13T12:06:22;152.95;;;145.43;;
76405;SDS011;65234;50.044;19.258;2023-03-13T12:08:53;149.32;;;142.90;;
76405;SDS011;65234;50.044;19.258;2023-03-13T12:13:54;141.32;;;134.88;;
76405;SDS011;65234;50.044;19.258;2023-03-13T12:16:25;145.52;;;139.20;;
76405;SDS011;65234;50.044;19.258;2023-03-13T12:19:01;139.88;;;133.82;;
76405;SDS011;65234;50.044;19.258;2023-03-13T12:21:27;149.38;;;142.95;;
76405;SDS011;65234;50.044;19.258;2023-03-13T12:23:59;146.23;;;139.52;;
76405;SDS011;65234;50.044;19.258;2023-03-13T12:26:32;149.05;;;142.10;;
76405;SDS011;65234;50.044;19.258;2023-03-13T12:29:05;150.75;;;143.75;;
76405;SDS011;65234;50.044;19.258;2023-03-13T12:31:37;143.23;;;136.75;;
76405;SDS011;65234;50.044;19.258;2023-03-13T12:34:10;146.40;;;140.00;;
76405;SDS011;65234;50.044;19.258;2023-03-13T12:36:42;143.10;;;136.73;;
76405;SDS011;65234;50.044;19.258;2023-03-13T12:39:17;147.65;;;141.27;;
76405;SDS011;65234;50.044;19.258;2023-03-13T12:41:53;146.20;;;139.75;;
76405;SDS011;65234;50.044;19.258;2023-03-13T12:44:32;145.82;;;139.63;;
76405;SDS011;65234;50.044;19.258;2023-03-13T12:47:00;144.98;;;138.50;;
76405;SDS011;65234;50.044;19.258;2023-03-13T12:49:40;144.88;;;138.52;;
76405;SDS011;65234;50.044;19.258;2023-03-13T12:52:45;144.10;;;137.75;;
76405;SDS011;65234;50.044;19.258;2023-03-13T12:58:27;138.35;;;131.90;;
76405;SDS011;65234;50.044;19.258;2023-03-13T13:01:03;139.48;;;133.25;;
76405;SDS011;65234;50.044;19.258;2023-03-13T13:03:32;139.82;;;133.30;;
76405;SDS011;65234;50.044;19.258;2023-03-13T13:06:03;138.13;;;131.95;;
76405;SDS011;65234;50.044;19.258;2023-03-13T13:08:32;138.75;;;132.65;;
76405;SDS011;65234;50.044;19.258;2023-03-13T13:17:17;128.02;;;122.32;;
76405;SDS011;65234;50.044;19.258;2023-03-13T13:19:46;129.50;;;123.85;;
76405;SDS011;65234;50.044;19.258;2023-03-13T13:28:18;128.18;;;122.63;;
76405;SDS011;65234;50.044;19.258;2023-03-13T13:30:57;132.68;;;126.60;;
76405;SDS011;65234;50.044;19.258;2023-03-13T13:33:36;127.63;;;121.47;;
76405;SDS011;65234;50.044;19.258;2023-03-13T13:38:51;120.60;;;115.18;;
76405;SDS011;65234;50.044;19.258;2023-03-13T13:41:26;124.65;;;118.97;;
76405;SDS011;65234;50.044;19.258;2023-03-13T13:46:49;125.25;;;119.80;;
76405;SDS011;65234;50.044;19.258;2023-03-13T13:49:16;125.35;;;119.88;;
76405;SDS011;65234;50.044;19.258;2023-03-13T13:52:16;127.00;;;121.25;;
76405;SDS011;65234;50.044;19.258;2023-03-13T13:54:56;116.90;;;111.40;;
76405;SDS011;65234;50.044;19.258;2023-03-13T13:57:22;115.82;;;110.50;;
76405;SDS011;65234;50.044;19.258;2023-03-13T13:59:50;122.20;;;116.38;;
76405;SDS011;65234;50.044;19.258;2023-03-13T14:02:21;121.88;;;115.78;;
76405;SDS011;65234;50.044;19.258;2023-03-13T14:04:59;120.50;;;114.82;;
76405;SDS011;65234;50.044;19.258;2023-03-13T14:10:16;119.47;;;113.78;;
76405;SDS011;65234;50.044;19.258;2023-03-13T14:12:51;121.68;;;115.93;;
76405;SDS011;65234;50.044;19.258;2023-03-13T14:15:18;119.45;;;113.65;;
76405;SDS011;65234;50.044;19.258;2023-03-13T14:17:49;122.20;;;115.82;;
76405;SDS011;65234;50.044;19.258;2023-03-13T14:20:30;122.03;;;116.50;;
76405;SDS011;65234;50.044;19.258;2023-03-13T14:22:58;121.88;;;116.30;;
76405;SDS011;65234;50.044;19.258;2023-03-13T14:25:26;114.65;;;108.25;;
76405;SDS011;65234;50.044;19.258;2023-03-13T14:28:04;120.63;;;115.07;;
76405;SDS011;65234;50.044;19.258;2023-03-13T14:30:29;112.53;;;107.38;;
76405;SDS011;65234;50.044;19.258;2023-03-13T14:32:56;111.93;;;107.07;;
76405;SDS011;65234;50.044;19.258;2023-03-13T14:35:22;116.70;;;111.45;;
76405;SDS011;65234;50.044;19.258;2023-03-13T14:37:49;115.10;;;109.32;;
76405;SDS011;65234;50.044;19.258;2023-03-13T14:40:20;117.22;;;111.93;;